sensor_id;sensor_type;location;lat;lon;timestamp;pressure;altitude;pressure_sealevel;temperature;humidity
26775;BME280;14362;51.902;7.626;2022-07-17T00:01:45;102108.94;;;15.86;73.30
26775;BME280;14362;51.902;7.626;2022-07-17T00:05:47;102112.72;;;15.73;72.62
26775;BME280;14362;51.902;7.626;2022-07-17T00:09:49;102112.53;;;15.70;72.68
26775;BME280;14362;51.902;7.626;2022-07-17T00:13:51;102120.94;;;15.61;73.68
26775;BME280;14362;51.902;7.626;2022-07-17T00:17:53;102113.03;;;15.63;73.56
26775;BME280;14362;51.902;7.626;2022-07-17T00:21:55;102101.06;;;15.58;75.12
26775;BME280;14362;51.902;7.626;2022-07-17T00:25:57;102098.69;;;15.43;74.92
26775;BME280;14362;51.902;7.626;2022-07-17T00:29:59;102101.47;;;15.35;75.71
26775;BME280;14362;51.902;7.626;2022-07-17T00:34:00;102097.84;;;15.34;76.14
26775;BME280;14362;51.902;7.626;2022-07-17T00:38:02;102102.28;;;15.27;75.92
26775;BME280;14362;51.902;7.626;2022-07-17T00:42:05;102097.53;;;15.14;75.96
26775;BME280;14362;51.902;7.626;2022-07-17T00:46:06;102104.28;;;15.13;77.09
26775;BME280;14362;51.902;7.626;2022-07-17T00:50:08;102108.72;;;15.05;77.07
26775;BME280;14362;51.902;7.626;2022-07-17T00:54:11;102109.97;;;14.91;77.83
26775;BME280;14362;51.902;7.626;2022-07-17T00:58:18;102105.28;;;14.86;78.43
26775;BME280;14362;51.902;7.626;2022-07-17T01:02:20;102102.97;;;14.88;78.65
26775;BME280;14362;51.902;7.626;2022-07-17T01:06:21;102110.53;;;14.79;78.23
26775;BME280;14362;51.902;7.626;2022-07-17T01:10:23;102114.09;;;14.71;78.67
26775;BME280;14362;51.902;7.626;2022-07-17T01:14:26;102114.34;;;14.61;79.00
26775;BME280;14362;51.902;7.626;2022-07-17T01:18:28;102104.66;;;14.67;79.01
26775;BME280;14362;51.902;7.626;2022-07-17T01:22:31;102106.13;;;14.65;79.45
26775;BME280;14362;51.902;7.626;2022-07-17T01:26:33;102106.69;;;14.53;79.36
26775;BME280;14362;51.902;7.626;2022-07-17T01:30:35;102098.72;;;14.47;80.63
26775;BME280;14362;51.902;7.626;2022-07-17T01:34:37;102110.75;;;14.47;80.28
26775;BME280;14362;51.902;7.626;2022-07-17T01:38:39;102106.22;;;14.38;80.31
26775;BME280;14362;51.902;7.626;2022-07-17T01:42:43;102107.63;;;14.27;80.41
26775;BME280;14362;51.902;7.626;2022-07-17T01:46:45;102111.47;;;14.18;80.99
26775;BME280;14362;51.902;7.626;2022-07-17T01:50:46;102116.66;;;14.11;82.04
26775;BME280;14362;51.902;7.626;2022-07-17T01:54:50;102112.31;;;14.05;82.70
26775;BME280;14362;51.902;7.626;2022-07-17T01:58:51;102106.72;;;14.05;84.06
26775;BME280;14362;51.902;7.626;2022-07-17T02:02:53;102099.75;;;14.02;84.22
26775;BME280;14362;51.902;7.626;2022-07-17T02:06:54;102101.41;;;13.90;83.68
26775;BME280;14362;51.902;7.626;2022-07-17T02:10:57;102096.22;;;13.83;84.55
26775;BME280;14362;51.902;7.626;2022-07-17T02:14:58;102103.94;;;13.78;84.98
26775;BME280;14362;51.902;7.626;2022-07-17T02:19:00;102102.25;;;13.90;85.36
26775;BME280;14362;51.902;7.626;2022-07-17T02:23:01;102105.59;;;13.79;84.90
26775;BME280;14362;51.902;7.626;2022-07-17T02:27:04;102112.03;;;13.66;85.11
26775;BME280;14362;51.902;7.626;2022-07-17T02:31:06;102099.78;;;13.62;85.87
26775;BME280;14362;51.902;7.626;2022-07-17T02:35:08;102107.78;;;13.55;86.71
26775;BME280;14362;51.902;7.626;2022-07-17T02:39:10;102102.16;;;13.55;87.07
26775;BME280;14362;51.902;7.626;2022-07-17T02:43:13;102105.50;;;13.57;87.71
26775;BME280;14362;51.902;7.626;2022-07-17T02:47:20;102102.16;;;13.55;88.11
26775;BME280;14362;51.902;7.626;2022-07-17T02:51:22;102107.28;;;13.39;87.92
26775;BME280;14362;51.902;7.626;2022-07-17T02:55:24;102113.88;;;13.43;88.07
26775;BME280;14362;51.902;7.626;2022-07-17T02:59:27;102117.84;;;13.29;88.16
26775;BME280;14362;51.902;7.626;2022-07-17T03:03:28;102119.69;;;13.33;89.16
26775;BME280;14362;51.902;7.626;2022-07-17T03:07:30;102124.69;;;13.36;89.73
26775;BME280;14362;51.902;7.626;2022-07-17T03:11:32;102129.94;;;13.25;88.87
26775;BME280;14362;51.902;7.626;2022-07-17T03:15:34;102127.25;;;13.20;89.28
26775;BME280;14362;51.902;7.626;2022-07-17T03:19:36;102128.16;;;13.15;90.61
26775;BME280;14362;51.902;7.626;2022-07-17T03:23:37;102132.53;;;13.21;90.58
26775;BME280;14362;51.902;7.626;2022-07-17T03:27:39;102129.81;;;13.16;90.55
26775;BME280;14362;51.902;7.626;2022-07-17T03:31:42;102119.22;;;13.00;90.59
26775;BME280;14362;51.902;7.626;2022-07-17T03:35:43;102122.09;;;12.95;91.09
26775;BME280;14362;51.902;7.626;2022-07-17T03:39:45;102119.91;;;12.92;91.82
26775;BME280;14362;51.902;7.626;2022-07-17T03:43:46;102117.44;;;13.04;92.39
26775;BME280;14362;51.902;7.626;2022-07-17T03:47:49;102118.91;;;13.01;91.23
26775;BME280;14362;51.902;7.626;2022-07-17T03:51:50;102131.97;;;12.92;91.90
26775;BME280;14362;51.902;7.626;2022-07-17T03:55:52;102142.88;;;12.89;92.44
26775;BME280;14362;51.902;7.626;2022-07-17T03:59:53;102136.72;;;12.92;92.47
26775;BME280;14362;51.902;7.626;2022-07-17T04:03:56;102136.75;;;12.87;92.29
26775;BME280;14362;51.902;7.626;2022-07-17T04:07:57;102142.63;;;12.90;92.85
26775;BME280;14362;51.902;7.626;2022-07-17T04:11:59;102139.34;;;13.02;92.89
26775;BME280;14362;51.902;7.626;2022-07-17T04:16:01;102134.78;;;13.06;92.98
26775;BME280;14362;51.902;7.626;2022-07-17T04:20:04;102132.34;;;13.18;91.93
26775;BME280;14362;51.902;7.626;2022-07-17T04:24:06;102117.00;;;13.28;92.30
26775;BME280;14362;51.902;7.626;2022-07-17T04:28:08;102122.91;;;13.27;92.30
26775;BME280;14362;51.902;7.626;2022-07-17T04:32:10;102120.94;;;13.41;92.05
26775;BME280;14362;51.902;7.626;2022-07-17T04:36:12;102126.34;;;13.51;91.02
26775;BME280;14362;51.902;7.626;2022-07-17T04:40:14;102137.03;;;13.62;90.68
26775;BME280;14362;51.902;7.626;2022-07-17T04:44:15;102145.97;;;13.64;89.59
26775;BME280;14362;51.902;7.626;2022-07-17T04:48:17;102159.78;;;13.74;89.28
26775;BME280;14362;51.902;7.626;2022-07-17T04:52:20;102159.47;;;13.76;88.95
26775;BME280;14362;51.902;7.626;2022-07-17T04:56:21;102155.63;;;13.85;89.11
26775;BME280;14362;51.902;7.626;2022-07-17T05:00:23;102157.47;;;13.90;88.36
26775;BME280;14362;51.902;7.626;2022-07-17T05:04:24;102158.94;;;14.01;88.11
26775;BME280;14362;51.902;7.626;2022-07-17T05:08:27;102152.56;;;14.09;86.73
26775;BME280;14362;51.902;7.626;2022-07-17T05:12:28;102155.72;;;14.21;86.97
26775;BME280;14362;51.902;7.626;2022-07-17T05:16:30;102159.50;;;14.38;85.92
26775;BME280;14362;51.902;7.626;2022-07-17T05:20:31;102150.56;;;14.49;85.28
26775;BME280;14362;51.902;7.626;2022-07-17T05:24:34;102152.50;;;14.62;85.22
26775;BME280;14362;51.902;7.626;2022-07-17T05:28:36;102160.91;;;14.84;84.13
26775;BME280;14362;51.902;7.626;2022-07-17T05:32:37;102156.31;;;15.54;81.10
26775;BME280;14362;51.902;7.626;2022-07-17T05:36:39;102148.44;;;16.29;77.16
26775;BME280;14362;51.902;7.626;2022-07-17T05:40:42;102148.47;;;17.05;72.62
26775;BME280;14362;51.902;7.626;2022-07-17T05:44:44;102149.56;;;17.54;70.40
26775;BME280;14362;51.902;7.626;2022-07-17T05:48:45;102145.25;;;17.86;67.21
26775;BME280;14362;51.902;7.626;2022-07-17T05:52:47;102134.47;;;18.66;62.90
26775;BME280;14362;51.902;7.626;2022-07-17T05:56:50;102139.22;;;19.83;58.22
26775;BME280;14362;51.902;7.626;2022-07-17T06:00:51;102132.38;;;20.32;54.07
26775;BME280;14362;51.902;7.626;2022-07-17T06:04:53;102140.09;;;20.70;53.00
26775;BME280;14362;51.902;7.626;2022-07-17T06:08:55;102148.84;;;21.60;49.37
26775;BME280;14362;51.902;7.626;2022-07-17T06:12:57;102154.88;;;22.35;47.37
26775;BME280;14362;51.902;7.626;2022-07-17T06:16:59;102167.53;;;22.07;47.31
26775;BME280;14362;51.902;7.626;2022-07-17T06:21:01;102169.97;;;21.62;49.12
26775;BME280;14362;51.902;7.626;2022-07-17T06:25:03;102157.59;;;21.12;51.18
26775;BME280;14362;51.902;7.626;2022-07-17T06:29:06;102141.34;;;20.34;53.08
26775;BME280;14362;51.902;7.626;2022-07-17T06:33:07;102136.06;;;20.20;54.29
26775;BME280;14362;51.902;7.626;2022-07-17T06:37:09;102139.34;;;19.62;55.58
26775;BME280;14362;51.902;7.626;2022-07-17T06:41:10;102144.75;;;19.23;57.63
26775;BME280;14362;51.902;7.626;2022-07-17T06:45:13;102163.28;;;18.80;59.88
26775;BME280;14362;51.902;7.626;2022-07-17T06:49:14;102171.69;;;18.88;59.30
26775;BME280;14362;51.902;7.626;2022-07-17T06:53:16;102158.41;;;19.21;58.87
26775;BME280;14362;51.902;7.626;2022-07-17T06:57:17;102149.81;;;19.62;58.39
26775;BME280;14362;51.902;7.626;2022-07-17T07:01:20;102150.19;;;19.84;56.27
26775;BME280;14362;51.902;7.626;2022-07-17T07:05:22;102148.19;;;19.85;55.89
26775;BME280;14362;51.902;7.626;2022-07-17T07:09:23;102146.91;;;20.06;55.33
26775;BME280;14362;51.902;7.626;2022-07-17T07:13:26;102131.97;;;20.06;53.21
26775;BME280;14362;51.902;7.626;2022-07-17T07:17:28;102126.13;;;19.90;54.54
26775;BME280;14362;51.902;7.626;2022-07-17T07:21:31;102140.19;;;19.87;55.27
26775;BME280;14362;51.902;7.626;2022-07-17T07:25:33;102134.22;;;20.00;54.17
26775;BME280;14362;51.902;7.626;2022-07-17T07:29:34;102135.47;;;20.15;53.23
26775;BME280;14362;51.902;7.626;2022-07-17T07:33:38;102136.19;;;20.24;54.38
26775;BME280;14362;51.902;7.626;2022-07-17T07:37:39;102127.31;;;20.37;52.21
26775;BME280;14362;51.902;7.626;2022-07-17T07:41:41;102125.66;;;20.24;53.01
26775;BME280;14362;51.902;7.626;2022-07-17T07:45:42;102146.06;;;20.42;52.68
26775;BME280;14362;51.902;7.626;2022-07-17T07:49:45;102151.16;;;20.36;52.82
26775;BME280;14362;51.902;7.626;2022-07-17T07:53:47;102158.94;;;20.39;52.87
26775;BME280;14362;51.902;7.626;2022-07-17T07:57:49;102171.19;;;20.43;53.33
26775;BME280;14362;51.902;7.626;2022-07-17T08:01:50;102168.56;;;20.62;51.02
26775;BME280;14362;51.902;7.626;2022-07-17T08:05:53;102178.53;;;20.56;51.48
26775;BME280;14362;51.902;7.626;2022-07-17T08:09:55;102181.13;;;20.49;56.20
26775;BME280;14362;51.902;7.626;2022-07-17T08:13:56;102181.16;;;20.37;60.20
26775;BME280;14362;51.902;7.626;2022-07-17T08:17:59;102192.81;;;19.23;83.31
26775;BME280;14362;51.902;7.626;2022-07-17T08:22:02;102198.19;;;17.89;85.81
26775;BME280;14362;51.902;7.626;2022-07-17T08:26:04;102204.47;;;17.40;95.04
26775;BME280;14362;51.902;7.626;2022-07-17T08:30:08;102191.84;;;17.29;91.48
26775;BME280;14362;51.902;7.626;2022-07-17T08:34:10;102198.31;;;17.55;88.08
26775;BME280;14362;51.902;7.626;2022-07-17T08:38:15;102189.22;;;17.87;93.04
26775;BME280;14362;51.902;7.626;2022-07-17T08:42:16;102181.06;;;17.94;75.36
26775;BME280;14362;51.902;7.626;2022-07-17T08:46:17;102177.41;;;18.02;73.42
26775;BME280;14362;51.902;7.626;2022-07-17T08:50:22;102186.00;;;18.05;74.26
26775;BME280;14362;51.902;7.626;2022-07-17T08:54:25;102183.31;;;18.46;69.58
26775;BME280;14362;51.902;7.626;2022-07-17T08:58:26;102172.97;;;18.50;71.89
26775;BME280;14362;51.902;7.626;2022-07-17T09:02:28;102174.91;;;18.58;71.73
26775;BME280;14362;51.902;7.626;2022-07-17T09:06:29;102164.38;;;18.67;66.51
26775;BME280;14362;51.902;7.626;2022-07-17T09:10:34;102168.28;;;18.95;64.37
26775;BME280;14362;51.902;7.626;2022-07-17T09:14:38;102170.66;;;19.13;66.40
26775;BME280;14362;51.902;7.626;2022-07-17T09:18:43;102164.56;;;19.23;64.12
26775;BME280;14362;51.902;7.626;2022-07-17T09:22:55;102172.34;;;19.26;63.81
26775;BME280;14362;51.902;7.626;2022-07-17T09:26:58;102169.69;;;19.42;58.04
26775;BME280;14362;51.902;7.626;2022-07-17T09:31:00;102171.69;;;19.41;58.61
26775;BME280;14362;51.902;7.626;2022-07-17T09:35:02;102179.38;;;19.64;57.10
26775;BME280;14362;51.902;7.626;2022-07-17T09:39:04;102167.78;;;19.90;53.49
26775;BME280;14362;51.902;7.626;2022-07-17T09:43:08;102166.97;;;20.01;56.10
26775;BME280;14362;51.902;7.626;2022-07-17T09:47:10;102168.63;;;20.38;50.99
26775;BME280;14362;51.902;7.626;2022-07-17T09:51:12;102166.75;;;20.30;50.97
26775;BME280;14362;51.902;7.626;2022-07-17T09:55:14;102170.97;;;20.24;51.81
26775;BME280;14362;51.902;7.626;2022-07-17T09:59:19;102154.00;;;20.36;51.78
26775;BME280;14362;51.902;7.626;2022-07-17T10:03:20;102144.88;;;20.55;50.67
26775;BME280;14362;51.902;7.626;2022-07-17T10:07:22;102151.66;;;20.77;50.22
26775;BME280;14362;51.902;7.626;2022-07-17T10:11:26;102151.09;;;20.72;48.71
26775;BME280;14362;51.902;7.626;2022-07-17T10:15:29;102154.28;;;21.10;46.87
26775;BME280;14362;51.902;7.626;2022-07-17T10:19:32;102159.97;;;21.10;47.25
26775;BME280;14362;51.902;7.626;2022-07-17T10:23:33;102164.38;;;21.23;46.17
26775;BME280;14362;51.902;7.626;2022-07-17T10:27:35;102164.38;;;21.23;47.14
26775;BME280;14362;51.902;7.626;2022-07-17T10:31:50;102159.66;;;21.27;47.98
26775;BME280;14362;51.902;7.626;2022-07-17T10:35:52;102163.25;;;21.39;46.57
26775;BME280;14362;51.902;7.626;2022-07-17T10:39:55;102153.84;;;21.51;45.76
26775;BME280;14362;51.902;7.626;2022-07-17T10:43:57;102150.31;;;21.69;45.18
26775;BME280;14362;51.902;7.626;2022-07-17T10:48:01;102149.03;;;21.97;44.86
26775;BME280;14362;51.902;7.626;2022-07-17T10:52:04;102146.00;;;22.06;44.62
26775;BME280;14362;51.902;7.626;2022-07-17T10:56:07;102155.72;;;22.20;43.47
26775;BME280;14362;51.902;7.626;2022-07-17T11:00:11;102145.56;;;22.35;43.21
26775;BME280;14362;51.902;7.626;2022-07-17T11:04:14;102149.28;;;22.39;42.54
26775;BME280;14362;51.902;7.626;2022-07-17T11:08:15;102154.88;;;22.35;42.89
26775;BME280;14362;51.902;7.626;2022-07-17T11:12:17;102145.13;;;22.52;42.58
26775;BME280;14362;51.902;7.626;2022-07-17T11:16:26;102151.66;;;22.71;41.13
26775;BME280;14362;51.902;7.626;2022-07-17T11:20:29;102152.34;;;22.83;39.91
26775;BME280;14362;51.902;7.626;2022-07-17T11:24:41;102144.22;;;22.82;40.45
26775;BME280;14362;51.902;7.626;2022-07-17T11:28:44;102139.41;;;22.86;40.26
26775;BME280;14362;51.902;7.626;2022-07-17T11:32:45;102134.47;;;22.83;41.70
26775;BME280;14362;51.902;7.626;2022-07-17T11:36:48;102136.50;;;23.01;40.11
26775;BME280;14362;51.902;7.626;2022-07-17T11:40:50;102129.22;;;23.04;39.42
26775;BME280;14362;51.902;7.626;2022-07-17T11:44:54;102131.50;;;23.14;40.45
26775;BME280;14362;51.902;7.626;2022-07-17T11:48:56;102135.25;;;23.18;40.85
26775;BME280;14362;51.902;7.626;2022-07-17T11:53:02;102135.06;;;23.30;40.88
26775;BME280;14362;51.902;7.626;2022-07-17T11:57:05;102137.09;;;23.48;40.63
26775;BME280;14362;51.902;7.626;2022-07-17T12:01:07;102130.69;;;23.55;39.94
26775;BME280;14362;51.902;7.626;2022-07-17T12:05:09;102125.56;;;23.41;40.07
26775;BME280;14362;51.902;7.626;2022-07-17T12:09:12;102120.41;;;23.50;40.70
26775;BME280;14362;51.902;7.626;2022-07-17T12:13:14;102120.63;;;23.61;40.27
26775;BME280;14362;51.902;7.626;2022-07-17T12:17:15;102126.06;;;23.69;37.72
26775;BME280;14362;51.902;7.626;2022-07-17T12:21:17;102099.22;;;23.70;38.83
26775;BME280;14362;51.902;7.626;2022-07-17T12:25:25;102094.38;;;23.71;38.53
26775;BME280;14362;51.902;7.626;2022-07-17T12:29:28;102093.53;;;23.70;39.74
26775;BME280;14362;51.902;7.626;2022-07-17T12:33:30;102089.00;;;23.88;38.94
26775;BME280;14362;51.902;7.626;2022-07-17T12:37:31;102086.06;;;24.07;38.67
26775;BME280;14362;51.902;7.626;2022-07-17T12:41:34;102085.47;;;24.20;37.85
26775;BME280;14362;51.902;7.626;2022-07-17T12:45:36;102076.75;;;24.36;36.34
26775;BME280;14362;51.902;7.626;2022-07-17T12:49:37;102083.38;;;24.43;36.40
26775;BME280;14362;51.902;7.626;2022-07-17T12:53:40;102077.72;;;24.47;36.16
26775;BME280;14362;51.902;7.626;2022-07-17T12:57:43;102076.97;;;24.79;34.57
26775;BME280;14362;51.902;7.626;2022-07-17T13:01:44;102076.78;;;24.65;34.82
26775;BME280;14362;51.902;7.626;2022-07-17T13:05:46;102066.44;;;24.87;34.09
26775;BME280;14362;51.902;7.626;2022-07-17T13:09:48;102067.03;;;24.66;33.04
26775;BME280;14362;51.902;7.626;2022-07-17T13:13:51;102063.84;;;24.71;33.53
26775;BME280;14362;51.902;7.626;2022-07-17T13:17:52;102057.44;;;24.81;33.58
26775;BME280;14362;51.902;7.626;2022-07-17T13:21:54;102056.84;;;25.01;32.78
26775;BME280;14362;51.902;7.626;2022-07-17T13:25:55;102056.28;;;25.18;32.70
26775;BME280;14362;51.902;7.626;2022-07-17T13:29:58;102054.31;;;25.26;33.56
26775;BME280;14362;51.902;7.626;2022-07-17T13:34:00;102053.22;;;25.37;32.63
26775;BME280;14362;51.902;7.626;2022-07-17T13:38:02;102058.66;;;25.53;32.81
26775;BME280;14362;51.902;7.626;2022-07-17T13:42:04;102060.81;;;25.63;32.39
26775;BME280;14362;51.902;7.626;2022-07-17T13:46:07;102043.03;;;25.80;31.96
26775;BME280;14362;51.902;7.626;2022-07-17T13:50:09;102050.03;;;25.93;31.63
26775;BME280;14362;51.902;7.626;2022-07-17T13:54:10;102043.19;;;26.00;32.20
26775;BME280;14362;51.902;7.626;2022-07-17T13:58:12;102046.97;;;26.18;31.94
26775;BME280;14362;51.902;7.626;2022-07-17T14:02:16;102033.91;;;26.21;32.04
26775;BME280;14362;51.902;7.626;2022-07-17T14:06:17;102027.50;;;26.41;32.48
26775;BME280;14362;51.902;7.626;2022-07-17T14:10:20;102024.72;;;26.52;31.18
26775;BME280;14362;51.902;7.626;2022-07-17T14:14:21;102031.63;;;26.44;31.42
26775;BME280;14362;51.902;7.626;2022-07-17T14:18:24;102026.81;;;26.65;31.49
26775;BME280;14362;51.902;7.626;2022-07-17T14:22:25;102019.13;;;26.83;32.29
26775;BME280;14362;51.902;7.626;2022-07-17T14:26:27;102004.88;;;27.01;31.45
26775;BME280;14362;51.902;7.626;2022-07-17T14:30:28;102010.19;;;26.99;30.88
26775;BME280;14362;51.902;7.626;2022-07-17T14:34:33;102007.38;;;27.06;30.71
26775;BME280;14362;51.902;7.626;2022-07-17T14:38:35;102002.09;;;27.21;30.10
26775;BME280;14362;51.902;7.626;2022-07-17T14:42:36;102003.69;;;27.19;28.39
26775;BME280;14362;51.902;7.626;2022-07-17T14:46:38;102006.91;;;26.93;29.30
26775;BME280;14362;51.902;7.626;2022-07-17T14:50:40;101999.53;;;26.89;29.03
26775;BME280;14362;51.902;7.626;2022-07-17T14:54:42;101986.44;;;26.88;29.03
26775;BME280;14362;51.902;7.626;2022-07-17T14:58:44;101974.16;;;26.91;29.36
26775;BME280;14362;51.902;7.626;2022-07-17T15:02:45;101978.31;;;27.03;28.10
26775;BME280;14362;51.902;7.626;2022-07-17T15:06:48;101971.41;;;27.18;29.34
26775;BME280;14362;51.902;7.626;2022-07-17T15:10:49;101978.38;;;27.24;28.20
26775;BME280;14362;51.902;7.626;2022-07-17T15:14:51;101977.13;;;27.32;28.50
26775;BME280;14362;51.902;7.626;2022-07-17T15:18:52;101960.78;;;27.36;28.41
26775;BME280;14362;51.902;7.626;2022-07-17T15:22:55;101962.41;;;27.37;28.27
26775;BME280;14362;51.902;7.626;2022-07-17T15:26:56;101958.66;;;27.02;28.54
26775;BME280;14362;51.902;7.626;2022-07-17T15:30:58;101964.38;;;26.88;28.19
26775;BME280;14362;51.902;7.626;2022-07-17T15:34:59;101966.38;;;26.81;28.24
26775;BME280;14362;51.902;7.626;2022-07-17T15:39:04;101960.25;;;26.82;28.28
26775;BME280;14362;51.902;7.626;2022-07-17T15:43:06;101966.81;;;26.83;26.79
26775;BME280;14362;51.902;7.626;2022-07-17T15:47:07;101957.81;;;26.77;26.84
26775;BME280;14362;51.902;7.626;2022-07-17T15:51:09;101958.63;;;26.88;27.09
26775;BME280;14362;51.902;7.626;2022-07-17T15:55:11;101953.31;;;26.80;27.38
26775;BME280;14362;51.902;7.626;2022-07-17T15:59:13;101946.75;;;26.72;27.54
26775;BME280;14362;51.902;7.626;2022-07-17T16:03:14;101950.84;;;26.71;27.63
26775;BME280;14362;51.902;7.626;2022-07-17T16:07:16;101952.47;;;26.72;27.91
26775;BME280;14362;51.902;7.626;2022-07-17T16:11:19;101948.81;;;26.75;28.08
26775;BME280;14362;51.902;7.626;2022-07-17T16:15:20;101939.81;;;26.77;27.16
26775;BME280;14362;51.902;7.626;2022-07-17T16:19:22;101936.06;;;26.59;27.89
26775;BME280;14362;51.902;7.626;2022-07-17T16:23:23;101929.13;;;26.56;28.01
26775;BME280;14362;51.902;7.626;2022-07-17T16:27:26;101926.28;;;26.63;27.82
26775;BME280;14362;51.902;7.626;2022-07-17T16:31:27;101919.34;;;26.64;27.88
26775;BME280;14362;51.902;7.626;2022-07-17T16:35:29;101915.63;;;26.50;28.10
26775;BME280;14362;51.902;7.626;2022-07-17T16:39:30;101914.41;;;26.61;28.63
26775;BME280;14362;51.902;7.626;2022-07-17T16:43:33;101907.44;;;26.52;28.47
26775;BME280;14362;51.902;7.626;2022-07-17T16:47:35;101909.88;;;26.43;28.78
26775;BME280;14362;51.902;7.626;2022-07-17T16:51:36;101907.88;;;26.50;28.84
26775;BME280;14362;51.902;7.626;2022-07-17T16:55:38;101899.69;;;26.56;28.75
26775;BME280;14362;51.902;7.626;2022-07-17T16:59:41;101888.19;;;26.42;28.70
26775;BME280;14362;51.902;7.626;2022-07-17T17:03:42;101877.59;;;26.42;28.98
26775;BME280;14362;51.902;7.626;2022-07-17T17:07:45;101873.06;;;26.34;29.22
26775;BME280;14362;51.902;7.626;2022-07-17T17:11:46;101878.03;;;26.48;28.99
26775;BME280;14362;51.902;7.626;2022-07-17T17:15:49;101876.38;;;26.43;28.69
26775;BME280;14362;51.902;7.626;2022-07-17T17:19:50;101876.34;;;26.40;28.61
26775;BME280;14362;51.902;7.626;2022-07-17T17:23:52;101879.97;;;26.23;28.47
26775;BME280;14362;51.902;7.626;2022-07-17T17:27:54;101872.22;;;26.27;28.66
26775;BME280;14362;51.902;7.626;2022-07-17T17:31:57;101876.25;;;26.15;28.79
26775;BME280;14362;51.902;7.626;2022-07-17T17:35:59;101875.84;;;26.17;28.34
26775;BME280;14362;51.902;7.626;2022-07-17T17:40:03;101868.53;;;26.23;28.87
26775;BME280;14362;51.902;7.626;2022-07-17T17:44:04;101864.03;;;26.18;28.41
26775;BME280;14362;51.902;7.626;2022-07-17T17:48:07;101866.84;;;26.11;27.91
26775;BME280;14362;51.902;7.626;2022-07-17T17:52:10;101849.28;;;26.09;28.13
26775;BME280;14362;51.902;7.626;2022-07-17T17:56:11;101860.34;;;26.18;29.24
26775;BME280;14362;51.902;7.626;2022-07-17T18:00:13;101875.09;;;26.30;28.30
26775;BME280;14362;51.902;7.626;2022-07-17T18:04:19;101866.91;;;26.29;28.06
26775;BME280;14362;51.902;7.626;2022-07-17T18:08:23;101875.81;;;26.06;28.47
26775;BME280;14362;51.902;7.626;2022-07-17T18:12:25;101877.75;;;25.85;28.75
26775;BME280;14362;51.902;7.626;2022-07-17T18:16:26;101880.88;;;25.70;29.10
26775;BME280;14362;51.902;7.626;2022-07-17T18:20:29;101875.53;;;25.58;29.43
26775;BME280;14362;51.902;7.626;2022-07-17T18:24:31;101876.28;;;25.48;30.24
26775;BME280;14362;51.902;7.626;2022-07-17T18:28:33;101886.00;;;25.36;29.97
26775;BME280;14362;51.902;7.626;2022-07-17T18:32:34;101888.38;;;25.31;30.33
26775;BME280;14362;51.902;7.626;2022-07-17T18:36:37;101893.63;;;25.25;30.58
26775;BME280;14362;51.902;7.626;2022-07-17T18:40:39;101891.97;;;25.17;30.81
26775;BME280;14362;51.902;7.626;2022-07-17T18:44:40;101886.56;;;25.09;30.79
26775;BME280;14362;51.902;7.626;2022-07-17T18:48:42;101886.47;;;25.02;31.63
26775;BME280;14362;51.902;7.626;2022-07-17T18:52:46;101890.03;;;24.92;31.82
26775;BME280;14362;51.902;7.626;2022-07-17T18:56:48;101884.22;;;24.78;32.73
26775;BME280;14362;51.902;7.626;2022-07-17T19:00:50;101885.31;;;24.67;32.44
26775;BME280;14362;51.902;7.626;2022-07-17T19:04:51;101882.00;;;24.61;31.60
26775;BME280;14362;51.902;7.626;2022-07-17T19:08:54;101873.78;;;24.53;32.91
26775;BME280;14362;51.902;7.626;2022-07-17T19:12:57;101876.88;;;24.41;34.24
26775;BME280;14362;51.902;7.626;2022-07-17T19:16:58;101868.56;;;24.29;33.88
26775;BME280;14362;51.902;7.626;2022-07-17T19:20:59;101879.84;;;24.18;34.33
26775;BME280;14362;51.902;7.626;2022-07-17T19:25:03;101880.56;;;24.08;34.01
26775;BME280;14362;51.902;7.626;2022-07-17T19:29:05;101892.63;;;23.98;35.54
26775;BME280;14362;51.902;7.626;2022-07-17T19:33:07;101891.19;;;23.82;36.00
26775;BME280;14362;51.902;7.626;2022-07-17T19:37:08;101901.97;;;23.70;37.16
26775;BME280;14362;51.902;7.626;2022-07-17T19:41:11;101910.63;;;23.51;38.62
26775;BME280;14362;51.902;7.626;2022-07-17T19:45:12;101922.38;;;23.23;39.03
26775;BME280;14362;51.902;7.626;2022-07-17T19:49:14;101917.88;;;23.00;40.75
26775;BME280;14362;51.902;7.626;2022-07-17T19:53:15;101925.13;;;22.75;40.73
26775;BME280;14362;51.902;7.626;2022-07-17T19:57:18;101920.44;;;22.64;40.39
26775;BME280;14362;51.902;7.626;2022-07-17T20:01:21;101928.53;;;22.43;42.01
26775;BME280;14362;51.902;7.626;2022-07-17T20:05:23;101915.59;;;22.26;42.10
26775;BME280;14362;51.902;7.626;2022-07-17T20:09:24;101928.22;;;22.10;42.02
26775;BME280;14362;51.902;7.626;2022-07-17T20:13:27;101914.09;;;21.94;43.36
26775;BME280;14362;51.902;7.626;2022-07-17T20:17:30;101918.63;;;21.80;43.46
26775;BME280;14362;51.902;7.626;2022-07-17T20:21:31;101919.16;;;21.67;43.08
26775;BME280;14362;51.902;7.626;2022-07-17T20:25:33;101914.38;;;21.55;43.61
26775;BME280;14362;51.902;7.626;2022-07-17T20:29:36;101926.22;;;21.42;44.28
26775;BME280;14362;51.902;7.626;2022-07-17T20:33:37;101928.97;;;21.38;44.11
26775;BME280;14362;51.902;7.626;2022-07-17T20:37:39;101921.38;;;21.27;46.31
26775;BME280;14362;51.902;7.626;2022-07-17T20:41:40;101925.75;;;21.24;44.90
26775;BME280;14362;51.902;7.626;2022-07-17T20:45:44;101913.34;;;21.29;43.72
26775;BME280;14362;51.902;7.626;2022-07-17T20:49:45;101916.19;;;21.29;43.73
26775;BME280;14362;51.902;7.626;2022-07-17T20:53:47;101912.88;;;21.27;43.99
26775;BME280;14362;51.902;7.626;2022-07-17T20:57:48;101918.00;;;21.21;43.77
26775;BME280;14362;51.902;7.626;2022-07-17T21:01:51;101921.03;;;21.13;44.02
26775;BME280;14362;51.902;7.626;2022-07-17T21:05:53;101914.19;;;20.98;46.16